.
WxDataArchive / Data Records for 2006-12-30
2006-12-29 December 2006 2006-12-31

Data Records for Saturday, 30 December 2006

Time	Temp	Chill	HIndex	Humid	Dewpt	 Wind 	HiWind	WindDir	Rain 	Barom 
-----	----	-----	------	-----	-----	------	------	-------	-----	----- 
00:00	35.3	35.3	35.3	92	33.2	1	3	112	0.00	30.411 
00:05	35.3	35.3	35.3	92	33.2	0	2	112	0.00	30.411 
00:10	35.2	35.2	35.2	92	33.1	0	2	112	0.00	30.411 
00:15	35.2	35.2	35.2	92	33.1	1	3	112	0.00	30.405 
00:20	35.2	35.2	35.2	93	33.4	1	4	112	0.00	30.405 
00:25	35.0	35.0	35.0	93	33.2	1	4	112	0.00	30.405 
00:30	35.0	35.0	35.0	93	33.2	1	2	112	0.00	30.406 
00:35	35.0	35.0	35.0	93	33.2	0	3	112	0.00	30.406 
00:40	35.0	35.0	35.0	93	33.2	0	1	112	0.00	30.406 
00:45	35.0	35.0	35.0	93	33.2	0	0	---	0.00	30.408 
00:50	35.0	35.0	35.0	93	33.2	0	2	112	0.00	30.408 
00:55	35.0	35.0	35.0	93	33.2	1	3	112	0.00	30.408 
01:00	35.2	35.2	35.2	93	33.4	1	2	90	0.00	30.405 
01:05	35.2	35.2	35.2	94	33.6	1	4	90	0.00	30.405 
01:10	35.2	35.2	35.2	94	33.6	0	2	90	0.00	30.405 
01:15	35.3	35.3	35.3	94	33.7	0	1	90	0.00	30.392 
01:20	35.3	35.3	35.3	94	33.7	0	2	90	0.00	30.392 
01:25	35.3	35.3	35.3	94	33.7	0	2	90	0.00	30.392 
01:30	35.3	35.3	35.3	94	33.7	1	5	112	0.00	30.390 
01:35	35.2	35.2	35.2	94	33.6	1	2	112	0.00	30.390 
01:40	35.2	35.2	35.2	94	33.6	1	3	112	0.00	30.390 
01:45	35.0	35.0	35.0	94	33.5	1	3	112	0.00	30.384 
01:50	35.0	35.0	35.0	94	33.5	1	2	112	0.00	30.384 
01:55	34.9	34.9	34.9	94	33.4	1	3	112	0.00	30.384 
02:00	34.9	34.9	34.9	94	33.4	1	3	112	0.00	30.376 
02:05	34.7	34.7	34.7	94	33.2	1	3	112	0.00	30.376 
02:10	34.6	34.6	34.6	94	33.1	1	4	90	0.00	30.376 
02:15	34.6	34.6	34.6	94	33.1	2	4	90	0.00	30.373 
02:20	34.4	34.4	34.4	94	32.9	2	3	90	0.00	30.373 
02:25	34.4	34.4	34.4	95	33.1	1	4	112	0.00	30.373 
02:30	34.4	34.4	34.4	95	33.1	1	4	112	0.00	30.373 
02:35	34.3	34.3	34.3	95	33.0	2	5	112	0.00	30.373 
02:40	34.3	34.3	34.3	95	33.0	2	3	112	0.00	30.373 
02:45	34.3	34.3	34.3	95	33.0	2	4	90	0.00	30.366 
02:50	34.3	34.3	34.3	95	33.0	2	5	112	0.00	30.366 
02:55	34.3	34.3	34.3	96	33.3	2	5	90	0.00	30.366 
03:00	34.4	34.4	34.4	96	33.4	2	5	112	0.00	30.361 
03:05	34.4	34.4	34.4	96	33.4	1	4	112	0.00	30.361 
03:10	34.4	34.4	34.4	96	33.4	1	4	112	0.00	30.361 
03:15	34.6	34.6	34.6	96	33.6	1	4	90	0.00	30.355 
03:20	34.6	34.6	34.6	96	33.6	1	4	90	0.00	30.355 
03:25	34.6	34.6	34.6	96	33.6	0	2	90	0.00	30.355 
03:30	34.7	34.7	34.7	96	33.7	1	2	90	0.00	30.356 
03:35	34.7	34.7	34.7	96	33.7	1	3	90	0.00	30.356 
03:40	34.7	34.7	34.7	96	33.7	1	4	90	0.00	30.356 
03:45	34.7	34.7	34.7	96	33.7	2	4	90	0.00	30.351 
03:50	34.9	34.9	34.9	96	33.9	1	3	90	0.00	30.351 
03:55	34.9	34.9	34.9	96	33.9	0	2	90	0.00	30.351 
04:00	34.9	34.9	34.9	96	33.9	0	1	90	0.00	30.356 
04:05	34.9	34.9	34.9	96	33.9	0	2	90	0.00	30.356 
04:10	34.9	34.9	34.9	96	33.9	0	1	90	0.00	30.356 
04:15	35.0	35.0	35.0	96	34.0	0	1	90	0.00	30.369 
04:20	35.0	35.0	35.0	96	34.0	0	1	90	0.00	30.369 
04:25	35.0	35.0	35.0	96	34.0	0	1	90	0.00	30.369 
04:30	35.0	35.0	35.0	96	34.0	0	1	90	0.00	30.372 
04:35	35.0	35.0	35.0	96	34.0	0	1	90	0.00	30.372 
04:40	35.2	35.2	35.2	96	34.2	0	1	90	0.00	30.372 
04:45	35.2	35.2	35.2	96	34.2	0	1	90	0.00	30.377 
04:50	35.3	35.3	35.3	96	34.3	0	1	90	0.00	30.377 
04:55	35.3	35.3	35.3	96	34.3	0	0	---	0.00	30.377 
05:00	35.3	35.3	35.3	96	34.3	0	1	90	0.00	30.378 
05:05	35.5	35.5	35.5	96	34.5	0	2	90	0.00	30.378 
05:10	35.5	35.5	35.5	96	34.5	0	1	90	0.00	30.378 
05:15	35.5	35.5	35.5	96	34.5	0	2	90	0.00	30.382 
05:20	35.6	35.6	35.6	95	34.3	0	2	90	0.00	30.382 
05:25	35.6	35.6	35.6	95	34.3	1	3	90	0.00	30.382 
05:30	35.6	35.6	35.6	95	34.3	1	2	90	0.00	30.391 
05:35	35.6	35.6	35.6	95	34.3	1	2	90	0.00	30.391 
05:40	35.6	35.6	35.6	95	34.3	1	2	90	0.00	30.391 
05:45	35.6	35.6	35.6	95	34.3	0	2	90	0.00	30.387 
05:50	35.6	35.6	35.6	95	34.3	1	2	90	0.00	30.387 
05:55	35.6	35.6	35.6	95	34.3	0	1	90	0.00	30.387 
06:00	35.6	35.6	35.6	95	34.3	1	2	90	0.00	30.395 
06:05	35.8	35.8	35.8	95	34.5	1	2	90	0.00	30.395 
06:10	35.8	35.8	35.8	95	34.5	1	2	90	0.00	30.395 
06:15	35.8	35.8	35.8	95	34.5	1	3	90	0.00	30.396 
06:20	35.8	35.8	35.8	94	34.2	1	4	90	0.00	30.396 
06:25	35.8	35.8	35.8	94	34.2	1	3	90	0.00	30.396 
06:30	35.8	35.8	35.8	94	34.2	1	3	90	0.00	30.396 
06:35	35.8	35.8	35.8	94	34.2	2	4	90	0.00	30.396 
06:40	35.8	35.8	35.8	94	34.2	0	3	90	0.00	30.396 
06:45	35.8	35.8	35.8	94	34.2	2	4	112	0.00	30.379 
06:50	35.8	35.8	35.8	94	34.2	1	4	90	0.00	30.379 
06:55	35.8	35.8	35.8	94	34.2	1	2	68	0.00	30.379 
07:00	35.8	35.8	35.8	94	34.2	0	0	---	0.00	30.404 
07:05	35.8	35.8	35.8	94	34.2	0	1	68	0.00	30.404 
07:10	35.8	35.8	35.8	94	34.2	0	0	---	0.00	30.404 
07:15	35.6	35.6	35.6	94	34.0	0	0	---	0.00	30.408 
07:20	35.5	35.5	35.5	94	33.9	0	0	---	0.00	30.408 
07:25	35.3	35.3	35.3	94	33.7	0	0	---	0.00	30.408 
07:30	35.2	35.2	35.2	94	33.6	0	1	68	0.00	30.419 
07:35	35.0	35.0	35.0	94	33.5	0	0	---	0.00	30.419 
07:40	34.9	34.9	34.9	94	33.4	0	1	68	0.00	30.419 
07:45	34.6	34.6	34.6	94	33.1	0	0	---	0.00	30.431 
07:50	34.4	34.4	34.4	94	32.9	0	0	---	0.00	30.431 
07:55	34.3	34.3	34.3	94	32.8	0	0	---	0.00	30.431 
08:00	34.0	34.0	34.0	93	32.2	0	0	---	0.00	30.426 
08:05	33.8	33.8	33.8	94	32.3	0	0	---	0.00	30.426 
08:10	33.5	33.5	33.5	94	32.0	0	0	---	0.00	30.426 
08:15	33.5	33.5	33.5	94	32.0	0	0	---	0.00	30.428 
08:20	33.5	33.5	33.5	94	32.0	0	1	68	0.00	30.428 
08:25	33.8	33.8	33.8	95	32.5	0	1	68	0.00	30.428 
08:30	33.8	33.8	33.8	95	32.5	0	1	68	0.00	30.432 
08:35	33.8	33.8	33.8	95	32.5	0	1	68	0.00	30.432 
08:40	33.8	33.8	33.8	95	32.5	0	1	68	0.00	30.432 
08:45	34.0	34.0	34.0	95	32.7	0	1	68	0.00	30.436 
08:50	34.0	34.0	34.0	95	32.7	0	1	68	0.00	30.436 
08:55	34.1	34.1	34.1	95	32.8	0	1	68	0.00	30.436 
09:00	34.1	34.1	34.1	95	32.8	0	1	68	0.00	30.430 
09:05	34.1	34.1	34.1	96	33.1	1	3	68	0.00	30.430 
09:10	34.1	34.1	34.1	96	33.1	1	2	68	0.00	30.430 
09:15	34.3	34.3	34.3	96	33.3	1	3	90	0.00	30.423 
09:20	34.3	34.3	34.3	96	33.3	1	2	90	0.00	30.423 
09:25	34.6	34.6	34.6	96	33.6	1	3	112	0.00	30.423 
09:30	34.7	34.7	34.7	95	33.4	2	3	90	0.00	30.420 
09:35	34.9	34.9	34.9	95	33.6	2	4	112	0.00	30.420 
09:40	35.2	35.2	35.2	95	33.9	1	3	112	0.00	30.420 
09:45	35.5	35.5	35.5	94	33.9	1	4	112	0.00	30.426 
09:50	35.6	35.6	35.6	93	33.8	2	3	112	0.00	30.426 
09:55	35.8	35.8	35.8	92	33.7	1	3	112	0.00	30.426 
10:00	36.2	36.2	36.2	92	34.1	1	3	112	0.00	30.434 
10:05	36.5	36.5	36.5	92	34.4	0	2	112	0.00	30.434 
10:10	36.8	36.8	36.8	91	34.4	0	1	112	0.00	30.434 
10:15	37.2	37.2	37.2	89	34.3	0	2	112	0.00	30.443 
10:20	37.3	37.3	37.3	89	34.4	1	3	112	0.00	30.443 
10:25	37.6	37.6	37.6	89	34.7	0	2	112	0.00	30.443 
10:30	37.8	37.8	37.8	88	34.6	1	2	112	0.00	30.450 
10:35	37.8	37.8	37.8	88	34.6	1	2	112	0.00	30.450 
10:40	37.9	37.9	37.9	88	34.7	1	3	112	0.00	30.450 
10:45	38.3	38.3	38.3	88	35.1	0	1	112	0.00	30.457 
10:50	38.6	38.6	38.6	87	35.1	0	2	112	0.00	30.457 
10:55	39.1	39.1	39.1	87	35.6	0	2	112	0.00	30.457 
11:00	39.5	39.5	39.5	86	35.7	1	2	112	0.00	30.460 
11:05	39.6	39.6	39.6	84	35.2	0	1	112	0.00	30.460 
11:10	39.9	39.9	39.9	85	35.8	1	3	112	0.00	30.460 
11:15	40.2	40.2	40.2	84	35.8	0	2	112	0.00	30.458 
11:20	40.5	40.5	40.5	82	35.4	0	2	112	0.00	30.458 
11:25	40.6	40.6	40.6	83	35.8	0	1	112	0.00	30.458 
11:30	41.2	41.2	41.2	84	36.7	0	1	112	0.00	30.442 
11:35	41.5	41.5	41.5	82	36.4	0	2	112	0.00	30.442 
11:40	41.8	41.8	41.8	81	36.4	0	1	112	0.00	30.442 
11:45	41.9	41.9	41.9	81	36.5	0	2	180	0.00	30.442 
11:50	42.1	42.1	42.1	81	36.7	0	0	---	0.00	30.442 
11:55	42.3	42.3	42.3	80	36.6	0	2	180	0.00	30.442 
12:00	42.6	42.6	42.6	79	36.6	0	2	135	0.00	30.430 
12:05	42.8	42.8	42.8	80	37.1	1	2	135	0.00	30.430 
12:10	42.9	42.9	42.9	79	36.8	2	4	112	0.00	30.430 
12:15	43.1	43.1	43.1	79	37.0	1	4	90	0.00	30.424 
12:20	43.3	43.3	43.3	78	36.9	0	2	90	0.00	30.424 
12:25	43.8	43.8	43.8	77	37.1	0	2	112	0.00	30.424 
12:30	43.9	43.9	43.9	77	37.2	0	2	112	0.00	30.411 
12:35	44.2	44.2	44.2	76	37.1	0	2	135	0.00	30.411 
12:40	44.2	44.2	44.2	75	36.8	0	1	135	0.00	30.411 
12:45	44.3	44.3	44.3	76	37.2	0	1	135	0.00	30.404 
12:50	44.5	44.5	44.5	74	36.7	0	2	135	0.00	30.404 
12:55	44.6	44.6	44.6	76	37.5	1	2	135	0.00	30.404 
13:00	44.6	44.6	44.6	75	37.2	1	2	135	0.00	30.389 
13:05	44.8	44.8	44.8	75	37.4	1	2	135	0.00	30.389 
13:10	45.1	45.1	45.1	75	37.7	0	2	135	0.00	30.389 
13:15	45.2	45.2	45.2	75	37.8	1	3	135	0.00	30.383 
13:20	45.5	45.5	45.5	75	38.0	0	1	135	0.00	30.383 
13:25	45.7	45.7	45.7	75	38.2	1	3	135	0.00	30.383 
13:30	45.7	45.7	45.7	76	38.6	1	4	112	0.00	30.378 
13:35	45.8	45.8	45.8	77	39.0	2	5	112	0.00	30.378 
13:40	45.8	45.8	45.8	77	39.0	2	4	112	0.00	30.378 
13:45	45.8	45.8	45.8	77	39.0	2	4	112	0.00	30.375 
13:50	45.7	45.7	45.7	79	39.6	2	4	90	0.00	30.375 
13:55	45.8	45.8	45.8	78	39.3	1	4	90	0.00	30.375 
14:00	46.0	46.0	46.0	78	39.5	1	4	90	0.00	30.377 
14:05	46.1	46.1	46.1	78	39.6	1	3	90	0.00	30.377 
14:10	46.2	46.2	46.2	77	39.4	1	2	90	0.00	30.377 
14:15	46.4	46.4	46.4	77	39.6	1	2	90	0.00	30.378 
14:20	46.5	46.5	46.5	77	39.7	1	2	90	0.00	30.378 
14:25	46.8	46.8	46.8	77	40.0	1	2	90	0.00	30.378 
14:30	47.0	47.0	47.0	77	40.2	1	4	90	0.00	30.377 
14:35	47.3	47.3	47.3	77	40.5	1	2	90	0.00	30.377 
14:40	47.6	47.6	47.6	76	40.4	1	3	90	0.00	30.377 
14:45	47.7	47.7	47.7	76	40.5	0	2	90	0.00	30.367 
14:50	47.7	47.7	47.7	74	39.8	1	3	90	0.00	30.367 
14:55	47.9	47.9	47.9	73	39.7	1	2	90	0.00	30.367 
15:00	47.9	47.9	47.9	74	40.0	1	2	90	0.00	30.369 
15:05	48.0	48.0	48.0	73	39.8	1	1	90	0.00	30.369 
15:10	48.2	48.2	48.2	73	40.0	1	2	90	0.00	30.369 
15:15	48.5	48.5	48.5	73	40.2	0	2	90	0.00	30.361 
15:20	48.5	48.5	48.5	73	40.2	1	2	90	0.00	30.361 
15:25	48.5	48.5	48.5	74	40.6	1	2	90	0.00	30.361 
15:30	48.5	48.5	48.5	75	40.9	1	2	90	0.00	30.362 
15:35	48.3	48.3	48.3	74	40.4	1	2	90	0.00	30.362 
15:40	48.3	48.3	48.3	73	40.1	1	2	90	0.00	30.362 
15:45	48.5	48.5	48.5	74	40.6	0	2	90	0.00	30.360 
15:50	48.5	48.5	48.5	75	40.9	1	3	90	0.00	30.360 
15:55	48.5	48.5	48.5	73	40.2	1	3	90	0.00	30.360 
16:00	48.5	48.5	48.5	75	40.9	1	3	90	0.00	30.364 
16:05	48.3	48.3	48.3	76	41.1	1	3	90	0.00	30.364 
16:10	48.2	48.2	48.2	76	41.0	0	2	90	0.00	30.364 
16:15	48.0	48.0	48.0	75	40.5	1	3	90	0.00	30.359 
16:20	47.9	47.9	47.9	75	40.4	1	3	90	0.00	30.359 
16:25	47.9	47.9	47.9	75	40.4	0	2	90	0.00	30.359 
16:30	47.7	47.7	47.7	74	39.8	0	1	90	0.00	30.357 
16:35	47.6	47.6	47.6	74	39.7	0	2	90	0.00	30.357 
16:40	47.4	47.4	47.4	74	39.5	1	2	90	0.00	30.357 
16:45	47.4	47.4	47.4	75	39.9	0	2	90	0.00	30.350 
16:50	47.1	47.1	47.1	75	39.6	0	2	90	0.00	30.350 
16:55	47.0	47.0	47.0	75	39.5	1	2	90	0.00	30.350 
17:00	46.7	46.7	46.7	76	39.5	0	2	90	0.00	30.343 
17:05	46.5	46.5	46.5	76	39.3	0	1	90	0.00	30.343 
17:10	46.2	46.2	46.2	77	39.4	0	1	90	0.00	30.343 
17:15	46.1	46.1	46.1	77	39.3	0	1	90	0.00	30.353 
17:20	45.8	45.8	45.8	78	39.3	0	0	---	0.00	30.353 
17:25	45.4	45.4	45.4	78	38.9	0	0	---	0.00	30.353 
17:30	45.1	45.1	45.1	80	39.3	0	1	90	0.00	30.362 
17:35	44.8	44.8	44.8	81	39.3	0	0	---	0.00	30.362 
17:40	44.3	44.3	44.3	81	38.8	0	0	---	0.00	30.362 
17:45	44.1	44.1	44.1	82	39.0	0	0	---	0.00	30.362 
17:50	43.8	43.8	43.8	82	38.7	0	0	---	0.00	30.362 
17:55	43.5	43.5	43.5	83	38.7	0	0	---	0.00	30.362 
18:00	43.2	43.2	43.2	83	38.4	0	0	---	0.00	30.364 
18:05	42.9	42.9	42.9	84	38.4	0	0	---	0.00	30.364 
18:10	42.8	42.8	42.8	85	38.6	0	0	---	0.00	30.364 
18:15	42.5	42.5	42.5	85	38.3	0	0	---	0.00	30.361 
18:20	42.2	42.2	42.2	86	38.3	0	0	---	0.00	30.361 
18:25	41.9	41.9	41.9	87	38.3	0	0	---	0.00	30.361 
18:30	41.8	41.8	41.8	87	38.2	0	0	---	0.00	30.359 
18:35	41.6	41.6	41.6	88	38.3	0	0	---	0.00	30.359 
18:40	41.5	41.5	41.5	89	38.5	0	0	---	0.00	30.359 
18:45	41.5	41.5	41.5	90	38.8	0	0	---	0.00	30.358 
18:50	41.6	41.6	41.6	91	39.2	0	1	90	0.00	30.358 
18:55	42.1	42.1	42.1	92	39.9	0	2	90	0.00	30.358 
19:00	42.3	42.3	42.3	91	39.9	0	2	90	0.00	30.347 
19:05	42.6	42.6	42.6	90	39.9	1	2	90	0.00	30.347 
19:10	42.8	42.8	42.8	90	40.1	1	3	90	0.00	30.347 
19:15	42.8	42.8	42.8	89	39.8	2	4	90	0.00	30.345 
19:20	42.8	42.8	42.8	89	39.8	2	4	90	0.00	30.345 
19:25	42.8	42.8	42.8	89	39.8	1	4	90	0.00	30.345 
19:30	42.8	42.8	42.8	89	39.8	1	4	90	0.00	30.347 
19:35	42.9	42.9	42.9	89	39.9	2	6	112	0.00	30.347 
19:40	42.9	42.9	42.9	89	39.9	1	4	112	0.00	30.347 
19:45	42.9	42.9	42.9	89	39.9	1	3	112	0.00	30.347 
19:50	42.8	42.8	42.8	89	39.8	1	2	112	0.00	30.347 
19:55	42.8	42.8	42.8	89	39.8	1	3	112	0.00	30.347 
20:00	42.8	42.8	42.8	88	39.5	1	4	90	0.00	30.333 
20:05	42.9	42.9	42.9	88	39.6	2	4	112	0.00	30.333 
20:10	43.1	43.1	43.1	88	39.8	2	5	112	0.00	30.333 
20:15	43.1	43.1	43.1	87	39.5	2	5	90	0.00	30.334 
20:20	43.2	43.2	43.2	87	39.6	2	5	90	0.00	30.334 
20:25	43.3	43.3	43.3	87	39.7	2	3	90	0.00	30.334 
20:30	43.3	43.3	43.3	87	39.7	1	3	112	0.00	30.345 
20:35	43.5	43.5	43.5	87	39.9	1	3	90	0.00	30.345 
20:40	43.5	43.5	43.5	87	39.9	2	4	90	0.00	30.345 
20:45	43.5	43.5	43.5	87	39.9	1	3	112	0.00	30.345 
20:50	43.5	43.5	43.5	86	39.6	2	4	112	0.00	30.345 
20:55	43.5	43.5	43.5	87	39.9	2	5	90	0.00	30.345 
21:00	43.5	43.5	43.5	87	39.9	1	3	90	0.00	30.343 
21:05	43.5	43.5	43.5	87	39.9	1	3	90	0.00	30.343 
21:10	43.3	43.3	43.3	87	39.7	0	2	90	0.00	30.343 
21:15	43.2	43.2	43.2	87	39.6	1	3	90	0.00	30.335 
21:20	43.2	43.2	43.2	87	39.6	2	4	90	0.00	30.335 
21:25	43.2	43.2	43.2	87	39.6	2	4	90	0.00	30.335 
21:30	43.1	43.1	43.1	87	39.5	2	5	90	0.00	30.333 
21:35	43.1	43.1	43.1	88	39.8	3	6	90	0.00	30.333 
21:40	43.1	40.9	43.1	87	39.5	4	10	112	0.00	30.333 
21:45	43.1	40.9	43.1	87	39.5	4	10	112	0.00	30.323 
21:50	43.2	41.0	43.2	87	39.6	4	9	112	0.00	30.323 
21:55	43.1	40.9	43.1	87	39.5	4	9	112	0.00	30.323 
22:00	42.9	40.7	42.9	87	39.3	4	9	90	0.00	30.320 
22:05	42.8	42.8	42.8	87	39.2	3	7	112	0.00	30.320 
22:10	42.6	42.6	42.6	88	39.3	2	7	112	0.00	30.320 
22:15	42.5	42.5	42.5	88	39.2	3	9	112	0.00	30.314 
22:20	42.3	42.3	42.3	88	39.0	3	7	90	0.00	30.314 
22:25	42.2	42.2	42.2	88	38.9	2	7	112	0.00	30.314 
22:30	42.2	42.2	42.2	88	38.9	3	6	112	0.00	30.322 
22:35	42.1	42.1	42.1	89	39.1	3	12	112	0.00	30.322 
22:40	41.9	41.9	41.9	89	38.9	3	6	112	0.00	30.322 
22:45	41.8	41.8	41.8	89	38.8	3	7	112	0.00	30.324 
22:50	41.6	39.2	41.6	90	38.9	4	6	90	0.00	30.324 
22:55	41.5	39.1	41.5	90	38.8	4	11	112	0.00	30.324 
23:00	41.5	41.5	41.5	90	38.8	3	7	112	0.00	30.316 
23:05	41.3	38.8	41.3	90	38.6	4	9	112	0.00	30.316 
23:10	41.3	38.8	41.3	90	38.6	4	10	112	0.00	30.316 
23:15	41.3	41.3	41.3	90	38.6	3	10	90	0.00	30.321 
23:20	41.2	41.2	41.2	90	38.5	3	7	112	0.00	30.321 
23:25	41.1	38.6	41.1	90	38.4	4	7	112	0.00	30.321 
23:30	40.8	37.4	40.8	90	38.1	5	11	112	0.00	30.261 
23:35	40.5	37.9	40.5	90	37.8	4	11	112	0.00	30.261 
23:40	40.1	37.4	40.1	90	37.4	4	10	112	0.00	30.261 
23:45	39.9	36.4	39.9	90	37.2	5	11	112	0.00	30.288 
23:50	39.8	39.8	39.8	91	37.4	3	7	112	0.00	30.288 
23:55	39.5	39.5	39.5	91	37.1	1	5	68	0.00	30.288 

CoCoRaHS
IN-AL-39
A2 Web Hosting
Creative Commons License
GoDaddy
Look for:

loaded 2017-12-13 02:42:52 • last modified 2010-11-18 10:43:29
Privacy PolicyDisclaimer
• wx.awcolley.com is powered by PmWiki v.2002016 •
• all content (unless otherwise noted) © 2017 A W Colley